NCAR-RAP Real-Time Weather Data

Output produced by METARs form (20 February 2019  17:07 UTC)
found at http://weather.rap.ucar.edu/surface/
 
RJSI 201000Z 18005KT 4000 -SHRA BR FEW003 SCT015 BKN030 04/04 Q1013
RJSI 200935Z 20005KT 4000 -SHRA BR FEW003 SCT015 BKN025 04/04 Q1013 RMK 1ST003 3CU015 6CU025 A2992
RJSI 200900Z 20005KT 160V240 3000 -SHRA BR FEW003 SCT010 BKN025 04/04 Q1013
RJSI 200800Z 19003KT 140V230 3000 -SHRA BR FEW003 SCT010 BKN025 04/04 Q1012
RJSI 200743Z VRB02KT 3000 -SHRA BR FEW003 SCT010 BKN025 04/04 Q1012 RMK 1ST003 4CU010 6CU025 A2988
RJSI 200700Z VRB01KT 4000 -SHRA BR FEW003 SCT010 BKN025 04/04 Q1011
RJSI 200600Z VRB02KT 4000 -SHRA BR FEW003 SCT015 BKN025 04/04 Q1011
RJSI 200500Z VRB01KT 4000 -SHRA BR FEW003 SCT015 BKN025 04/04 Q1012
RJSI 200400Z 03004KT 340V050 4000 -SHRA BR FEW003 SCT015 BKN025 04/04 Q1012
RJSI 200300Z VRB02KT 4000 -SHRA BR FEW004 SCT020 BKN030 04/03 Q1012
RJSI 200200Z 02004KT 4000 -SHRA BR FEW004 SCT020 BKN030 04/03 Q1013
RJSI 200100Z 24003KT 180V280 8000 -SHRA FEW006 SCT020 BKN030 03/03 Q1013
RJSI 200000Z 12003KT 050V180 8000 -SHRA FEW006 SCT020 BKN030 03/02 Q1012
RJSI 192300Z 03009KT 9999 -SHRA FEW006 SCT030 BKN040 03/02 Q1011
RJSI 192240Z 03010KT 9999 -SHRA FEW006 SCT030 BKN040 02/01 Q1011 RMK 1ST006 3CU030 5CU040 A2987
RJSI 191000Z VRB01KT 9999 -RA FEW015 BKN020 BKN040 03/01 Q1015
RJSI 190900Z VRB01KT 9999 -RA FEW020 BKN050 BKN070 04/01 Q1017
RJSI 190800Z 03002KT 9999 -RA FEW020 BKN025 BKN040 05/00 Q1017
RJSI 190700Z VRB02KT 9999 FEW020 SCT025 BKN070 06/01 Q1019
RJSI 190600Z 27003KT 240V310 9999 FEW020 BKN025 BKN080 06/00 Q1019
RJSI 190500Z 27003KT 220V310 9999 FEW020 BKN025 BKN110 06/M01 Q1020
RJSI 190400Z 29003KT 230V350 9999 FEW020 BKN030 BKN110 06/M01 Q1021
RJSI 190300Z VRB02KT 9999 FEW020 SCT030 BKN110 06/M01 Q1022
RJSI 190200Z 25004KT 210V290 9999 FEW030 SCT120 BKN140 05/M02 Q1024
RJSI 190100Z VRB02KT 9999 FEW030 SCT130 BKN150 03/M02 Q1025
RJSI 190000Z 18005KT 9999 FEW030 SCT130 BKN150 01/M02 Q1026
RJSI 182300Z 19002KT 9999 FEW030 SCT120 BKN150 M01/M02 Q1026
RJSI 181000Z VRB02KT 9999 FEW030 SCT050 02/M04 Q1025
RJSI 180900Z 36005KT 9999 FEW030 SCT050 04/M05 Q1024
RJSI 180800Z 30005KT 260V010 9999 FEW030 SCT050 04/M04 Q1024
RJSI 180700Z 30009KT 270V340 9999 FEW030 SCT050 05/M05 Q1023
RJSI 180600Z 30011KT 260V340 9999 FEW030 BKN050 05/M04 Q1023